罗盘
风向 的 风向 260° Leeuwarden Air Base 5/23
风: 10 kt, 3 beaufort

8 kt

4 kt
改变
0 5.000 10.000 15.000 20.000
OVC 15.000 ft
METAR EHLW 170655Z AUTO 26010KT 9999 OVC150 16/13 Q1020 BLU NOSIG

METAR Leeuwarden Air Base

Leeuwarden Air Base是Leeuwarden,荷兰中的中型机场。 该机场有2条跑道: 5/23 和 9/27.

这份报告是针对2022年5月17日 08:55, 当地时间在Leeuwarden Air Base进行的。

机场观察

风向为260°,速度为10 kt。

可见度为10 km 或者更多。

有乌云密布在15.000 ft的高度。 破损或更高的上限为15.000 ft。

温度和风寒是16 °C。 露点为13 °C,相对湿度为83%。 海平面上的气压为1020 hPa (QNH)。

白天

今天,太阳从05:34升起,在21:32降落。 这适用于Leeuwarden Air Base,世界夏令时可能有所不同。 当地时间与世界标准时间之间的时差为+2 小时。 夏令时目前正在进行中。

公司介绍

我们没有关于这个机场的公司信息。

体会

到Vliegles.nl去找飞行课程,跳伞和其他飞行体验。 浏览页面,了解Leeuwarden Air Base附近所有可用的活动。 你也可以使用搜索功能来寻找你所在地附近的特定飞行课程、跳伞或其他飞行体验。

您会帮助我们保持Metar-Taf.com正常运行吗?
您的贡献有助于网站的进一步开发并支付费用。

没有更多广告

您是捐款5美元还是更多?然后,我们将永远不会再向您展示广告,这是我们永恒的感谢!
捐赠前先登录

跑道

Id 标题 侧风 逆风
5/23 054°-234° 4 kt 8 kt
9/27 088°-268° 1 kt 9 kt

逆风成分最大的方向会被突出显示,并用于横风计算。 这并不一定意味着这个方向在使用。

乌云

15.000 ft OVC 乌云密布

温度 & 天气

温度 16 °C
露点 13 °C
相对湿度 83%
Kp-index 2  

公司介绍

新增公司

下载我们的应用程序

在您的手机和平板电脑上轻松访问所有航空天气。
有许多网站上没有的功能,如离线支持和个人机场列表。

Studio Eveline

Benalmádena
España